Time;durP1;ratioP1;P1;durP2;ratioP2;P2;SDS_P1;SDS_P2;PMS_P1;PMS_P2;Temp;Humidity;BMP_temperature;BMP_pressure;BME280_temperature;BME280_humidity;BME280_pressure;Samples;Min_cycle;Max_cycle;Signal;HPM_P1;HPM_P2
2022/01/27 00:01:13;;;;;;;1.02;0.95;;;-0.10;99.90;;;;;;5024040;28;20073;-82
2022/01/27 00:04:17;;;;;;;0.28;0.28;;;-0.10;99.90;;;;;;5008749;28;20014;-84
2022/01/27 00:06:33;;;;;;;0.47;0.47;;;-0.10;99.90;;;;;;5008194;28;20061;-83
2022/01/27 00:09:08;;;;;;;0.30;0.30;;;-0.10;99.90;;;;;;5006121;28;20085;-84
2022/01/27 00:11:33;;;;;;;0.10;0.10;;;-0.10;99.90;;;;;;5012011;28;20084;-84
2022/01/27 00:14:01;;;;;;;0.15;0.15;;;-0.10;99.90;;;;;;5009241;28;20437;-84
2022/01/27 00:16:30;;;;;;;1.25;0.88;;;-0.20;99.90;;;;;;5016981;28;20513;-84
2022/01/27 00:18:57;;;;;;;6.50;0.98;;;-0.10;99.90;;;;;;5001130;28;20553;-80
2022/01/27 00:21:30;;;;;;;1.67;1.38;;;-0.10;99.90;;;;;;5010407;28;20060;-84
2022/01/27 00:23:56;;;;;;;1.33;1.05;;;-0.10;99.90;;;;;;5000591;28;20038;-84
2022/01/27 00:26:22;;;;;;;0.35;0.35;;;-0.10;99.90;;;;;;5011470;28;20489;-84
2022/01/27 00:28:48;;;;;;;0.60;0.60;;;-0.20;99.90;;;;;;5004844;28;20432;-84
2022/01/27 00:31:16;;;;;;;0.98;0.60;;;-0.10;99.90;;;;;;5013198;28;20117;-84
2022/01/27 00:33:43;;;;;;;0.68;0.68;;;-0.10;99.90;;;;;;5012170;28;20022;-84
2022/01/27 00:36:09;;;;;;;0.52;0.43;;;-0.10;99.90;;;;;;5012935;28;20409;-84
2022/01/27 00:38:35;;;;;;;3.00;0.88;;;-0.10;99.90;;;;;;5012635;28;20014;-79
2022/01/27 00:41:01;;;;;;;1.20;1.13;;;-0.20;99.90;;;;;;5007399;28;20029;-85
2022/01/27 00:43:26;;;;;;;0.40;0.40;;;-0.20;99.90;;;;;;4999940;28;20508;-84
2022/01/27 00:45:52;;;;;;;0.40;0.40;;;-0.20;99.90;;;;;;4999019;28;20030;-84
2022/01/27 00:48:18;;;;;;;0.52;0.10;;;-0.20;99.90;;;;;;5004931;28;20026;-80
2022/01/27 00:50:55;;;;;;;0.20;0.20;;;-0.20;99.90;;;;;;5007967;28;20022;-84
2022/01/27 01:01:32;;;;;;;0.65;0.65;;;-0.10;99.90;;;;;;5006649;28;20022;-84
2022/01/27 01:04:01;;;;;;;2.50;0.38;;;-0.10;99.90;;;;;;5014942;28;20049;-84
2022/01/27 01:20:00;;;;;;;0.30;0.30;;;-0.10;99.90;;;;;;5016156;28;20405;-84
2022/01/27 01:29:22;;;;;;;0.32;0.32;;;-0.10;99.90;;;;;;5003616;28;20078;-83
2022/01/27 01:32:45;;;;;;;1.00;0.55;;;-0.20;99.90;;;;;;5015738;28;20036;-84
2022/01/27 01:35:11;;;;;;;4.03;1.17;;;-0.20;99.90;;;;;;5015482;28;20022;-84
2022/01/27 01:37:42;;;;;;;6.10;1.52;;;-0.20;99.90;;;;;;5013821;28;20080;-84
2022/01/27 01:40:12;;;;;;;4.65;1.58;;;-0.10;99.90;;;;;;5001284;28;20436;-80
2022/01/27 01:42:38;;;;;;;3.63;2.00;;;-0.20;99.90;;;;;;5003464;28;20022;-84
2022/01/27 01:45:06;;;;;;;1.30;1.17;;;-0.20;99.90;;;;;;5010268;28;20053;-80
2022/01/27 01:47:32;;;;;;;0.55;0.55;;;-0.20;99.90;;;;;;5010590;28;20032;-84
2022/01/27 01:49:58;;;;;;;2.35;1.80;;;-0.20;99.90;;;;;;5003238;28;20026;-84
2022/01/27 01:52:25;;;;;;;0.08;0.08;;;-0.20;99.90;;;;;;5006260;28;20030;-80
2022/01/27 01:54:51;;;;;;;1.75;1.65;;;-0.20;99.90;;;;;;5007860;28;20052;-84
2022/01/27 01:57:17;;;;;;;0.43;0.43;;;-0.20;99.90;;;;;;5011501;28;20058;-84
2022/01/27 01:59:43;;;;;;;1.08;1.02;;;-0.20;99.90;;;;;;5000938;28;20512;-83
2022/01/27 02:02:12;;;;;;;0.15;0.15;;;-0.20;99.90;;;;;;5013991;28;20030;-84
2022/01/27 02:04:41;;;;;;;0.13;0.13;;;-0.20;99.90;;;;;;5001893;28;20022;-81
2022/01/27 02:07:19;;;;;;;0.77;0.77;;;-0.20;99.90;;;;;;5009708;28;20068;-84
2022/01/27 02:10:32;;;;;;;0.47;0.35;;;-0.30;99.90;;;;;;5014772;28;20025;-84
2022/01/27 02:18:25;;;;;;;0.00;0.00;;;-0.40;99.90;;;;;;4979473;28;20035;-79
2022/01/27 02:20:51;;;;;;;1.65;0.65;;;-0.50;99.90;;;;;;4973526;28;20030;-84
2022/01/27 02:23:17;;;;;;;0.77;0.77;;;-0.50;99.90;;;;;;4992194;28;20484;-84
2022/01/27 02:25:43;;;;;;;0.88;0.88;;;-0.60;99.90;;;;;;5015989;28;20026;-84
2022/01/27 02:28:09;;;;;;;1.00;0.75;;;-0.60;99.90;;;;;;5014378;28;20037;-80
2022/01/27 02:30:34;;;;;;;0.10;0.10;;;-0.70;99.90;;;;;;5010354;28;20436;-84
2022/01/27 02:33:00;;;;;;;0.03;0.03;;;-0.70;99.90;;;;;;5006991;28;20097;-83
2022/01/27 02:35:29;;;;;;;0.70;0.60;;;-0.70;99.90;;;;;;5009737;28;20446;-84
2022/01/27 02:37:54;;;;;;;0.73;0.73;;;-0.60;99.90;;;;;;5015034;28;20025;-84
2022/01/27 02:40:34;;;;;;;0.30;0.30;;;-0.70;99.90;;;;;;5014057;28;20030;-84
2022/01/27 02:43:02;;;;;;;0.10;0.10;;;-0.60;99.90;;;;;;5007809;28;20037;-84
2022/01/27 02:45:35;;;;;;;0.32;0.32;;;-0.70;99.90;;;;;;5005007;28;20482;-83
2022/01/27 02:48:00;;;;;;;0.30;0.30;;;-0.80;99.90;;;;;;5006307;28;20053;-84
2022/01/27 02:50:26;;;;;;;0.10;0.10;;;-0.90;99.90;;;;;;5005196;28;20117;-79
2022/01/27 02:52:52;;;;;;;0.63;0.52;;;-0.90;99.90;;;;;;5006113;28;20072;-84
2022/01/27 02:55:18;;;;;;;0.00;0.00;;;-0.90;99.90;;;;;;5008432;28;20018;-84
2022/01/27 02:57:43;;;;;;;1.65;0.52;;;-0.90;99.90;;;;;;5002811;28;20061;-84
2022/01/27 03:00:09;;;;;;;0.00;0.00;;;-0.90;99.90;;;;;;5003179;28;20025;-79
2022/01/27 03:02:36;;;;;;;0.30;0.30;;;-0.90;99.90;;;;;;5001465;28;20033;-79
2022/01/27 03:05:03;;;;;;;0.35;0.35;;;-0.90;99.90;;;;;;5002519;28;20034;-80
2022/01/27 03:07:28;;;;;;;0.25;0.25;;;-0.90;99.90;;;;;;5005700;28;20457;-84
2022/01/27 03:09:54;;;;;;;0.93;0.32;;;-0.80;99.90;;;;;;5008085;28;20050;-79
2022/01/27 03:12:23;;;;;;;0.28;0.15;;;-0.90;99.90;;;;;;5010732;28;20104;-84
2022/01/27 03:14:49;;;;;;;0.25;0.25;;;-0.80;99.90;;;;;;5010928;28;20057;-79
2022/01/27 03:17:15;;;;;;;0.00;0.00;;;-0.90;99.90;;;;;;5000760;28;20028;-85
2022/01/27 03:19:41;;;;;;;0.20;0.20;;;-0.90;99.90;;;;;;5010866;28;20018;-84
2022/01/27 03:22:08;;;;;;;0.13;0.10;;;-1.00;99.90;;;;;;5000603;28;20077;-85
2022/01/27 03:24:35;;;;;;;0.10;0.10;;;-1.00;99.90;;;;;;5011661;28;20071;-84
2022/01/27 03:27:01;;;;;;;0.00;0.00;;;-1.00;99.90;;;;;;5006006;28;20037;-84
2022/01/27 03:29:27;;;;;;;0.17;0.17;;;-0.90;99.90;;;;;;5011054;28;20033;-84
2022/01/27 03:31:54;;;;;;;0.08;0.08;;;-0.90;99.90;;;;;;5006693;28;20035;-79
2022/01/27 03:34:20;;;;;;;0.00;0.00;;;-1.00;99.90;;;;;;5003278;28;20023;-85
2022/01/27 03:36:47;;;;;;;0.00;0.00;;;-1.00;99.90;;;;;;5006131;28;20030;-85
2022/01/27 03:39:16;;;;;;;2.30;0.10;;;-1.00;99.90;;;;;;5013089;28;20105;-85
2022/01/27 03:41:49;;;;;;;0.00;0.00;;;-1.00;99.90;;;;;;5013685;28;20025;-85
2022/01/27 03:44:15;;;;;;;0.65;0.65;;;-1.00;99.90;;;;;;5009917;28;20567;-85
2022/01/27 03:46:40;;;;;;;0.35;0.35;;;-0.90;99.90;;;;;;5001939;28;20042;-85
2022/01/27 03:49:06;;;;;;;0.65;0.65;;;-0.90;99.90;;;;;;5012862;28;20022;-85
2022/01/27 03:51:32;;;;;;;0.10;0.10;;;-1.00;99.90;;;;;;5014303;28;20476;-84
2022/01/27 03:53:57;;;;;;;0.00;0.00;;;-0.90;99.90;;;;;;5012872;28;20025;-85
2022/01/27 03:56:23;;;;;;;0.10;0.10;;;-1.00;99.90;;;;;;4998965;28;20049;-84
2022/01/27 03:58:49;;;;;;;0.20;0.20;;;-1.00;99.90;;;;;;5005638;28;20054;-84
2022/01/27 04:01:14;;;;;;;0.38;0.38;;;-1.00;99.90;;;;;;5011689;28;20156;-85
2022/01/27 04:03:41;;;;;;;0.10;0.10;;;-1.00;99.90;;;;;;5005863;28;20015;-83
2022/01/27 04:06:08;;;;;;;0.10;0.10;;;-1.00;99.90;;;;;;5009466;28;20477;-84
2022/01/27 04:08:37;;;;;;;2.28;1.55;;;-1.00;99.90;;;;;;5008450;28;20030;-79
2022/01/27 04:11:08;;;;;;;0.15;0.15;;;-1.00;99.90;;;;;;5008651;28;20100;-84
2022/01/27 04:13:34;;;;;;;0.93;0.93;;;-0.90;99.90;;;;;;5006577;28;20030;-85
2022/01/27 04:15:59;;;;;;;0.63;0.63;;;-0.90;99.90;;;;;;5012749;28;20108;-84
2022/01/27 04:18:26;;;;;;;0.85;0.85;;;-0.90;99.90;;;;;;5014337;28;20113;-85
2022/01/27 04:20:51;;;;;;;0.40;0.40;;;-0.90;99.90;;;;;;5012694;28;20401;-80
2022/01/27 04:23:18;;;;;;;3.25;1.45;;;-0.90;99.90;;;;;;5005422;28;20018;-85
2022/01/27 04:25:45;;;;;;;0.20;0.20;;;-0.90;99.90;;;;;;5007743;28;20026;-84
2022/01/27 04:28:11;;;;;;;0.40;0.40;;;-0.80;99.90;;;;;;5007332;28;20022;-84
2022/01/27 04:30:37;;;;;;;2.90;1.77;;;-0.80;99.90;;;;;;5014371;28;20117;-79
2022/01/27 04:33:05;;;;;;;2.17;1.20;;;-0.80;99.90;;;;;;5011654;28;20064;-79
2022/01/27 04:35:37;;;;;;;0.98;0.98;;;-0.80;99.90;;;;;;5006774;28;20049;-84
2022/01/27 04:48:15;;;;;;;0.10;0.10;;;-1.10;99.90;;;;;;5008403;28;20105;-84
2022/01/27 04:50:41;;;;;;;0.70;0.38;;;-1.10;99.90;;;;;;5016802;28;20030;-84
2022/01/27 04:53:13;;;;;;;1.08;0.93;;;-1.20;99.90;;;;;;5009950;28;20058;-85
2022/01/27 04:55:38;;;;;;;1.88;1.33;;;-1.20;99.90;;;;;;5007923;28;20022;-84
2022/01/27 04:58:15;;;;;;;0.30;0.20;;;-1.20;99.90;;;;;;5003578;28;20046;-84
2022/01/27 05:00:41;;;;;;;3.85;0.50;;;-1.20;99.90;;;;;;5009650;28;20026;-84
2022/01/27 05:03:22;;;;;;;0.45;0.45;;;-1.10;99.90;;;;;;5009831;28;20483;-85
2022/01/27 05:05:48;;;;;;;0.98;0.98;;;-1.20;99.90;;;;;;5011519;28;20401;-86
2022/01/27 05:08:18;;;;;;;0.77;0.77;;;-1.10;99.90;;;;;;5007676;28;20025;-85
2022/01/27 05:10:59;;;;;;;1.08;1.08;;;-1.10;99.90;;;;;;5014031;28;20018;-85
2022/01/27 05:13:27;;;;;;;0.50;0.50;;;-1.10;99.90;;;;;;5011369;28;20034;-79
2022/01/27 05:15:53;;;;;;;0.10;0.10;;;-1.00;99.90;;;;;;5006316;28;20029;-79
2022/01/27 05:18:20;;;;;;;0.00;0.00;;;-1.10;99.90;;;;;;5002449;28;20027;-85
2022/01/27 05:20:48;;;;;;;0.52;0.52;;;-1.10;99.90;;;;;;5007316;28;20022;-85
2022/01/27 05:23:14;;;;;;;0.55;0.55;;;-1.20;99.90;;;;;;5001967;28;20026;-85
2022/01/27 05:25:40;;;;;;;0.43;0.40;;;-1.20;99.90;;;;;;5014976;28;20485;-79
2022/01/27 05:28:07;;;;;;;1.35;0.73;;;-1.10;99.90;;;;;;5010268;28;20029;-85
2022/01/27 05:30:34;;;;;;;0.40;0.40;;;-1.10;99.90;;;;;;5003427;28;20504;-84
2022/01/27 05:33:00;;;;;;;0.15;0.15;;;-1.10;99.90;;;;;;5008394;28;20536;-79
2022/01/27 05:35:26;;;;;;;0.25;0.25;;;-1.10;99.90;;;;;;5015448;28;20104;-84
2022/01/27 05:37:51;;;;;;;0.13;0.13;;;-1.20;99.90;;;;;;5006696;28;20110;-84
2022/01/27 05:40:17;;;;;;;0.35;0.35;;;-1.20;99.90;;;;;;5012819;28;20092;-85
2022/01/27 05:42:43;;;;;;;0.10;0.10;;;-1.20;99.90;;;;;;5009965;28;20346;-85
2022/01/27 05:45:09;;;;;;;1.10;1.00;;;-1.30;99.90;;;;;;5011479;28;20087;-84
2022/01/27 05:47:35;;;;;;;0.10;0.10;;;-1.20;99.90;;;;;;5006532;28;20431;-79
2022/01/27 05:50:01;;;;;;;0.47;0.47;;;-1.30;99.90;;;;;;5009807;28;20018;-86
2022/01/27 05:52:27;;;;;;;0.00;0.00;;;-1.20;99.90;;;;;;5016984;28;20002;-85
2022/01/27 05:54:52;;;;;;;0.03;0.03;;;-1.20;99.90;;;;;;5009914;28;20113;-84
2022/01/27 05:57:21;;;;;;;1.85;0.75;;;-1.30;99.90;;;;;;5014144;28;20405;-85
2022/01/27 06:00:00;;;;;;;0.47;0.43;;;-1.30;99.90;;;;;;5015853;28;20034;-87
2022/01/27 06:02:26;;;;;;;0.00;0.00;;;-1.30;99.90;;;;;;5011078;28;20022;-79
2022/01/27 06:04:51;;;;;;;0.55;0.55;;;-1.30;99.90;;;;;;5013647;28;20022;-85
2022/01/27 06:07:17;;;;;;;0.63;0.35;;;-1.40;99.90;;;;;;5002973;28;20121;-84
2022/01/27 06:09:43;;;;;;;0.55;0.52;;;-1.40;99.90;;;;;;5010639;28;20022;-80
2022/01/27 06:12:11;;;;;;;0.00;0.00;;;-1.40;99.90;;;;;;5018045;28;20045;-85
2022/01/27 06:14:37;;;;;;;0.20;0.20;;;-1.30;99.90;;;;;;5013989;28;20108;-84
2022/01/27 06:17:03;;;;;;;0.77;0.77;;;-1.20;99.90;;;;;;5003308;28;20489;-85
2022/01/27 06:19:29;;;;;;;0.05;0.05;;;-1.20;99.90;;;;;;5010131;28;20033;-84
2022/01/27 06:21:54;;;;;;;2.17;1.23;;;-1.20;99.90;;;;;;5007905;28;20477;-79
2022/01/27 06:24:20;;;;;;;0.30;0.30;;;-1.20;99.90;;;;;;5009444;28;20053;-84
2022/01/27 06:26:46;;;;;;;0.00;0.00;;;-1.20;99.90;;;;;;5011384;28;20386;-85
2022/01/27 06:29:12;;;;;;;1.27;0.93;;;-1.20;99.90;;;;;;5008835;28;20563;-80
2022/01/27 06:31:37;;;;;;;0.57;0.43;;;-1.20;99.90;;;;;;5010464;28;20355;-85
2022/01/27 06:34:03;;;;;;;0.47;0.47;;;-1.30;99.90;;;;;;5007406;28;20034;-85
2022/01/27 06:36:29;;;;;;;2.10;0.70;;;-1.30;99.90;;;;;;5006185;28;20440;-85
2022/01/27 06:38:55;;;;;;;0.45;0.45;;;-1.30;99.90;;;;;;5011572;28;20022;-85
2022/01/27 06:41:20;;;;;;;0.10;0.10;;;-1.30;99.90;;;;;;5007165;28;20034;-85
2022/01/27 06:43:46;;;;;;;2.95;2.15;;;-1.20;99.90;;;;;;5008582;28;20465;-79
2022/01/27 06:46:12;;;;;;;0.98;0.98;;;-1.20;99.90;;;;;;5003266;28;20022;-85
2022/01/27 06:48:37;;;;;;;0.43;0.43;;;-1.00;99.90;;;;;;5009270;28;20033;-79
2022/01/27 06:51:05;;;;;;;0.13;0.13;;;-1.20;99.90;;;;;;4999494;28;20034;-85
2022/01/27 06:53:31;;;;;;;1.02;0.38;;;-1.20;99.90;;;;;;5006777;28;20034;-84
2022/01/27 06:55:57;;;;;;;0.30;0.30;;;-1.20;99.90;;;;;;5000927;28;20030;-79
2022/01/27 06:58:23;;;;;;;0.10;0.10;;;-1.10;99.90;;;;;;5008466;28;20034;-85
2022/01/27 07:00:49;;;;;;;0.43;0.43;;;-1.10;99.90;;;;;;5002323;28;20084;-80
2022/01/27 07:03:15;;;;;;;0.35;0.35;;;-1.20;99.90;;;;;;4997216;28;20034;-86
2022/01/27 07:05:41;;;;;;;0.20;0.20;;;-1.10;99.90;;;;;;5013258;28;20036;-85
2022/01/27 07:08:07;;;;;;;0.30;0.30;;;-1.30;99.90;;;;;;5025959;28;20065;-86
2022/01/27 07:10:33;;;;;;;1.75;1.35;;;-1.30;99.90;;;;;;5013272;28;20021;-81
2022/01/27 07:12:58;;;;;;;0.03;0.03;;;-1.30;99.90;;;;;;5013005;28;20026;-85
2022/01/27 07:15:24;;;;;;;0.60;0.47;;;-1.30;99.90;;;;;;5012665;28;20486;-86
2022/01/27 07:17:50;;;;;;;1.55;1.33;;;-1.30;99.90;;;;;;5013282;28;20056;-82
2022/01/27 07:20:17;;;;;;;0.82;0.77;;;-1.20;99.90;;;;;;5017325;28;20121;-80
2022/01/27 07:22:43;;;;;;;0.32;0.32;;;-1.20;99.90;;;;;;5013097;28;20021;-86
2022/01/27 07:25:10;;;;;;;0.55;0.55;;;-1.30;99.90;;;;;;5009631;28;20042;-86
2022/01/27 07:27:36;;;;;;;3.00;0.25;;;-1.20;99.90;;;;;;5001758;28;20504;-81
2022/01/27 07:30:04;;;;;;;0.98;0.93;;;-1.10;99.90;;;;;;4993544;28;20488;-82
2022/01/27 07:32:30;;;;;;;0.55;0.43;;;-1.10;99.90;;;;;;5015364;28;20033;-86
2022/01/27 07:34:55;;;;;;;0.32;0.32;;;-1.20;99.90;;;;;;5002818;28;20104;-86
2022/01/27 07:37:21;;;;;;;0.25;0.25;;;-1.20;99.90;;;;;;5012682;28;20048;-86
2022/01/27 07:39:48;;;;;;;1.63;1.33;;;-1.20;99.90;;;;;;5012512;28;20022;-85
2022/01/27 07:42:14;;;;;;;0.80;0.80;;;-1.20;99.90;;;;;;5019867;28;20052;-84
2022/01/27 07:44:39;;;;;;;0.13;0.13;;;-1.20;99.90;;;;;;5023795;28;20010;-81
2022/01/27 07:47:05;;;;;;;0.20;0.20;;;-1.10;99.90;;;;;;5035029;28;20020;-84
2022/01/27 07:49:31;;;;;;;0.00;0.00;;;-1.10;99.90;;;;;;5017543;28;20026;-89
2022/01/27 07:51:57;;;;;;;0.13;0.13;;;-1.20;99.90;;;;;;4994018;28;20453;-80
2022/01/27 07:54:25;;;;;;;0.10;0.10;;;-1.30;99.90;;;;;;5008927;28;20076;-80
2022/01/27 07:56:51;;;;;;;1.75;1.55;;;-1.20;99.90;;;;;;5012392;28;20059;-87
2022/01/27 07:59:17;;;;;;;0.20;0.20;;;-1.10;99.90;;;;;;5012427;28;20030;-87
2022/01/27 08:01:43;;;;;;;0.10;0.10;;;-1.10;99.90;;;;;;5010793;28;20018;-82
2022/01/27 08:04:08;;;;;;;0.15;0.15;;;-1.10;99.90;;;;;;5006677;28;20022;-76
2022/01/27 08:06:34;;;;;;;0.20;0.20;;;-1.10;99.90;;;;;;5009469;28;20089;-79
2022/01/27 08:08:59;;;;;;;0.40;0.40;;;-1.00;99.90;;;;;;5011041;28;20030;-80
2022/01/27 08:11:25;;;;;;;3.50;0.93;;;-1.00;99.90;;;;;;5012663;28;20104;-79
2022/01/27 08:13:51;;;;;;;0.20;0.20;;;-1.00;99.90;;;;;;5007991;28;20029;-77
2022/01/27 08:16:16;;;;;;;0.00;0.00;;;-1.10;99.90;;;;;;5008936;28;20095;-76
2022/01/27 08:18:42;;;;;;;1.27;1.17;;;-1.10;99.90;;;;;;5014211;28;20022;-76
2022/01/27 08:21:08;;;;;;;0.00;0.00;;;-1.00;99.90;;;;;;5015056;28;20473;-76
2022/01/27 08:23:34;;;;;;;0.20;0.08;;;-1.00;99.90;;;;;;5012773;28;20030;-76
2022/01/27 08:26:07;;;;;;;1.40;1.27;;;-1.00;99.90;;;;;;5014878;28;20140;-79
2022/01/27 08:28:46;;;;;;;0.30;0.30;;;-1.00;99.90;;;;;;5027986;28;20030;-75
2022/01/27 08:31:13;;;;;;;0.40;0.40;;;-0.90;99.90;;;;;;5011111;28;20401;-76
2022/01/27 08:33:40;;;;;;;0.22;0.22;;;-0.90;99.90;;;;;;5014759;28;20018;-75
2022/01/27 08:36:07;;;;;;;1.38;0.75;;;-0.90;99.90;;;;;;5013079;28;20068;-76
2022/01/27 08:38:36;;;;;;;0.35;0.35;;;-0.90;99.90;;;;;;5006563;28;20022;-75
2022/01/27 08:41:01;;;;;;;2.40;1.85;;;-0.90;99.90;;;;;;5005487;28;20401;-76
2022/01/27 08:43:27;;;;;;;0.70;0.70;;;-0.90;99.90;;;;;;5015010;28;20018;-78
2022/01/27 08:45:53;;;;;;;0.88;0.88;;;-0.90;99.90;;;;;;5013617;28;20029;-75
2022/01/27 08:48:21;;;;;;;0.28;0.28;;;-0.90;99.90;;;;;;5014412;28;20022;-78
2022/01/27 08:51:10;;;;;;;0.40;0.40;;;-0.90;99.90;;;;;;5014502;28;20026;-78
2022/01/27 08:53:37;;;;;;;10.15;4.15;;;-1.00;99.90;;;;;;5014358;28;20493;-79
2022/01/27 08:56:04;;;;;;;0.00;0.00;;;-1.00;99.90;;;;;;5013397;28;20084;-79
2022/01/27 08:58:31;;;;;;;0.25;0.25;;;-1.00;99.90;;;;;;5013447;28;20401;-76
2022/01/27 09:00:57;;;;;;;0.00;0.00;;;-0.90;99.90;;;;;;5013263;28;20018;-77
2022/01/27 09:03:23;;;;;;;1.00;0.93;;;-0.90;99.90;;;;;;5012271;28;20085;-77
2022/01/27 09:05:48;;;;;;;0.10;0.10;;;-0.90;99.90;;;;;;5013888;28;20034;-76
2022/01/27 09:08:14;;;;;;;0.30;0.28;;;-0.90;99.90;;;;;;5014667;28;20034;-75
2022/01/27 09:10:41;;;;;;;1.08;0.73;;;-0.90;99.90;;;;;;5014949;28;20433;-75
2022/01/27 09:13:07;;;;;;;1.85;0.98;;;-0.90;99.90;;;;;;5012166;28;20034;-77
2022/01/27 09:15:33;;;;;;;0.93;0.52;;;-0.80;99.90;;;;;;5015567;28;20484;-76
2022/01/27 09:18:00;;;;;;;2.28;1.08;;;-0.90;99.90;;;;;;5013372;28;20040;-77
2022/01/27 09:20:26;;;;;;;0.55;0.55;;;-0.90;99.90;;;;;;5010004;28;20014;-76
2022/01/27 09:22:54;;;;;;;0.90;0.73;;;-0.80;99.90;;;;;;5012260;28;20034;-76
2022/01/27 09:25:25;;;;;;;1.27;0.55;;;-0.80;99.90;;;;;;5013419;28;20018;-76
2022/01/27 09:27:52;;;;;;;0.15;0.15;;;-0.80;99.90;;;;;;5012173;28;20045;-77
2022/01/27 09:30:18;;;;;;;0.47;0.47;;;-0.70;99.90;;;;;;5013882;28;20105;-77
2022/01/27 09:32:46;;;;;;;0.10;0.10;;;-0.80;99.90;;;;;;5013122;28;20116;-75
2022/01/27 09:35:12;;;;;;;6.93;1.13;;;-0.70;99.90;;;;;;5012401;28;20034;-76
2022/01/27 09:37:38;;;;;;;1.48;1.38;;;-0.70;99.90;;;;;;5012981;28;20112;-77
2022/01/27 09:40:08;;;;;;;1.00;0.90;;;-0.80;99.90;;;;;;5012141;28;20136;-77
2022/01/27 09:42:37;;;;;;;0.75;0.75;;;-0.70;99.90;;;;;;5012916;28;20032;-76
2022/01/27 09:45:05;;;;;;;0.10;0.10;;;-0.70;99.90;;;;;;5013075;28;20022;-77
2022/01/27 09:47:34;;;;;;;2.67;2.17;;;-0.60;99.90;;;;;;5011338;28;20034;-76
2022/01/27 09:50:19;;;;;;;0.65;0.65;;;-0.50;99.90;;;;;;5011660;28;20038;-76
2022/01/27 09:52:44;;;;;;;1.58;1.48;;;-0.60;99.90;;;;;;5010932;28;20025;-76
2022/01/27 09:55:10;;;;;;;2.63;0.82;;;-0.60;99.90;;;;;;5009208;28;20560;-77
2022/01/27 09:57:36;;;;;;;0.57;0.57;;;-0.50;99.90;;;;;;5011115;28;20129;-77
2022/01/27 10:00:03;;;;;;;8.25;1.00;;;-0.40;99.90;;;;;;5012995;28;20176;-76
2022/01/27 10:02:30;;;;;;;0.75;0.75;;;-0.40;99.90;;;;;;5009434;28;20018;-76
2022/01/27 10:04:57;;;;;;;1.85;1.65;;;-0.40;99.90;;;;;;5012627;28;20485;-77
2022/01/27 10:07:30;;;;;;;1.48;0.95;;;-0.40;99.90;;;;;;5011895;28;20156;-76
2022/01/27 10:10:08;;;;;;;1.52;1.42;;;-0.30;99.90;;;;;;5010329;28;20656;-76
2022/01/27 10:12:49;;;;;;;0.73;0.73;;;-0.20;99.90;;;;;;5011063;28;20029;-76
2022/01/27 10:15:19;;;;;;;0.80;0.80;;;-0.20;99.90;;;;;;5008732;28;20384;-77
2022/01/27 10:18:06;;;;;;;1.27;1.17;;;-0.10;99.90;;;;;;5011472;28;20021;-77
2022/01/27 10:20:32;;;;;;;1.48;1.42;;;-0.10;99.90;;;;;;5010964;28;20025;-77
2022/01/27 10:23:22;;;;;;;0.55;0.45;;;0.00;99.90;;;;;;5012338;28;20026;-77
2022/01/27 10:25:55;;;;;;;0.63;0.60;;;0.00;99.90;;;;;;5012854;28;20032;-77
2022/01/27 10:31:12;;;;;;;12.85;1.88;;;0.10;99.90;;;;;;5007583;28;20032;-77
2022/01/27 10:33:56;;;;;;;4.10;1.70;;;0.20;99.90;;;;;;5003369;28;20369;-76
2022/01/27 10:36:26;;;;;;;0.60;0.60;;;0.20;99.90;;;;;;5010265;28;20032;-77
2022/01/27 10:38:59;;;;;;;2.53;1.27;;;0.20;99.90;;;;;;5007091;28;20409;-78
2022/01/27 10:41:28;;;;;;;6.25;2.10;;;0.20;99.90;;;;;;5011835;28;20061;-79
2022/01/27 10:44:17;;;;;;;1.02;1.00;;;0.20;99.90;;;;;;5008493;28;20029;-77
2022/01/27 10:47:12;;;;;;;2.25;2.03;;;0.20;99.90;;;;;;5005483;28;20152;-80
2022/01/27 10:49:44;;;;;;;1.67;1.55;;;0.30;99.90;;;;;;5008294;28;20033;-78
2022/01/27 10:52:17;;;;;;;0.10;0.10;;;0.40;99.90;;;;;;5011519;28;20030;-76
2022/01/27 10:54:54;;;;;;;10.90;2.63;;;0.30;99.90;;;;;;5010573;28;20631;-77
2022/01/27 10:57:22;;;;;;;3.75;2.13;;;0.40;99.90;;;;;;5011094;28;20370;-78
2022/01/27 10:59:48;;;;;;;0.55;0.55;;;0.40;99.90;;;;;;5011559;28;20128;-80
2022/01/27 11:02:13;;;;;;;1.17;1.08;;;0.50;99.90;;;;;;5011099;28;20053;-77
2022/01/27 11:04:43;;;;;;;2.78;0.90;;;0.50;99.90;;;;;;5009839;28;20033;-77
2022/01/27 11:07:11;;;;;;;5.15;0.98;;;0.60;99.90;;;;;;5011646;28;20026;-78
2022/01/27 11:09:41;;;;;;;7.75;1.70;;;0.50;99.90;;;;;;5010895;28;20018;-77
2022/01/27 11:12:12;;;;;;;0.70;0.70;;;0.60;99.90;;;;;;5011414;28;20485;-77
2022/01/27 11:14:39;;;;;;;0.00;0.00;;;0.70;99.90;;;;;;5009285;28;20022;-75
2022/01/27 11:17:07;;;;;;;0.25;0.25;;;0.70;99.90;;;;;;5009794;28;20033;-77
2022/01/27 11:22:23;;;;;;;1.48;0.95;;;0.60;99.90;;;;;;5005413;28;20037;-74
2022/01/27 11:27:23;;;;;;;0.20;0.20;;;0.80;99.90;;;;;;5010536;28;20124;-78
2022/01/27 11:30:00;;;;;;;1.08;0.85;;;0.80;99.90;;;;;;5011271;28;20453;-78
2022/01/27 11:32:39;;;;;;;2.75;1.90;;;0.80;99.90;;;;;;5009658;28;20396;-74
2022/01/27 11:35:23;;;;;;;0.30;0.30;;;0.90;99.90;;;;;;5010392;28;20136;-74
2022/01/27 11:37:54;;;;;;;3.75;1.38;;;1.10;99.90;;;;;;5012573;28;20095;-74
2022/01/27 11:40:21;;;;;;;1.10;1.00;;;1.00;99.90;;;;;;5011414;28;20065;-78
2022/01/27 11:42:56;;;;;;;0.52;0.52;;;1.00;99.90;;;;;;5007786;28;20385;-75
2022/01/27 11:45:37;;;;;;;0.28;0.28;;;0.90;99.90;;;;;;5009766;28;20026;-79
2022/01/27 11:48:13;;;;;;;1.30;0.88;;;0.90;99.90;;;;;;5010794;28;20069;-75
2022/01/27 11:53:27;;;;;;;0.73;0.63;;;1.00;99.90;;;;;;5009466;28;20397;-79
2022/01/27 11:55:53;;;;;;;1.45;1.27;;;1.00;99.90;;;;;;5009675;28;20033;-74
2022/01/27 11:58:23;;;;;;;1.88;1.73;;;1.10;99.90;;;;;;5011586;28;20057;-76
2022/01/27 12:01:17;;;;;;;0.95;0.70;;;1.00;99.90;;;;;;5011506;28;20026;-77
2022/01/27 12:04:15;;;;;;;0.15;0.15;;;0.90;99.90;;;;;;5008421;28;20025;-77
2022/01/27 12:06:50;;;;;;;0.47;0.47;;;1.00;99.90;;;;;;5004801;28;20038;-77
2022/01/27 12:09:19;;;;;;;0.50;0.50;;;1.00;99.90;;;;;;5005256;28;20022;-77
2022/01/27 12:11:53;;;;;;;0.40;0.40;;;1.00;99.90;;;;;;5007954;28;20038;-77
2022/01/27 12:14:25;;;;;;;0.03;0.03;;;1.10;99.90;;;;;;5009195;28;20073;-76
2022/01/27 12:17:09;;;;;;;0.08;0.08;;;1.00;99.90;;;;;;5008507;28;20104;-80
2022/01/27 12:19:56;;;;;;;0.75;0.57;;;0.90;99.90;;;;;;5007234;28;20026;-76
2022/01/27 12:22:47;;;;;;;1.23;1.17;;;0.90;99.90;;;;;;5011275;28;20026;-77
2022/01/27 12:25:15;;;;;;;0.20;0.20;;;1.00;99.90;;;;;;5006326;28;20116;-77
2022/01/27 12:27:48;;;;;;;3.47;0.88;;;1.10;99.90;;;;;;5008646;28;20034;-78
2022/01/27 12:30:14;;;;;;;;;;;1.10;99.90;;;;;;5010175;28;20029;-77
2022/01/27 12:32:40;;;;;;;0.20;0.20;;;1.10;99.90;;;;;;5010681;28;19914;-77
2022/01/27 12:35:13;;;;;;;0.88;0.88;;;1.10;99.90;;;;;;5008736;28;20065;-77
2022/01/27 12:37:42;;;;;;;;;;;1.10;99.90;;;;;;5011064;28;20161;-77
2022/01/27 12:40:22;;;;;;;0.30;0.30;;;1.10;99.90;;;;;;5010485;28;19917;-77
2022/01/27 12:42:57;;;;;;;0.47;0.47;;;1.10;99.90;;;;;;5010651;28;20018;-76
2022/01/27 12:45:27;;;;;;;0.55;0.55;;;1.30;99.90;;;;;;5001761;28;20026;-77
2022/01/27 12:47:54;;;;;;;0.63;0.63;;;1.30;99.90;;;;;;5008496;28;20056;-77
2022/01/27 12:50:22;;;;;;;0.43;0.43;;;1.30;99.90;;;;;;5011086;28;20041;-76
2022/01/27 12:52:56;;;;;;;0.85;0.15;;;1.40;99.90;;;;;;5007782;28;20029;-76
2022/01/27 12:55:28;;;;;;;2.35;1.55;;;1.40;99.90;;;;;;5005535;28;20504;-77
2022/01/27 12:57:58;;;;;;;0.35;0.22;;;1.40;99.90;;;;;;5008524;28;20056;-78
2022/01/27 13:00:28;;;;;;;3.00;1.60;;;1.30;99.90;;;;;;5006946;28;20492;-78
2022/01/27 13:03:03;;;;;;;0.20;0.20;;;1.40;99.90;;;;;;5013878;28;20029;-76
2022/01/27 13:05:41;;;;;;;0.50;0.50;;;1.30;99.90;;;;;;5010139;28;20444;-75
2022/01/27 13:08:07;;;;;;;1.13;0.70;;;1.40;99.90;;;;;;5010849;28;20033;-75
2022/01/27 13:10:34;;;;;;;0.10;0.10;;;1.40;99.90;;;;;;5013822;28;20045;-77
2022/01/27 13:13:10;;;;;;;0.57;0.57;;;1.50;99.90;;;;;;5012355;28;20030;-77
2022/01/27 13:15:36;;;;;;;0.57;0.57;;;1.50;99.90;;;;;;5012121;28;20037;-78
2022/01/27 13:18:12;;;;;;;0.10;0.10;;;1.50;99.90;;;;;;5013042;28;20397;-77
2022/01/27 13:20:43;;;;;;;0.98;0.45;;;1.50;99.90;;;;;;5012864;28;20028;-76
2022/01/27 13:25:53;;;;;;;0.25;0.25;;;1.50;99.90;;;;;;5012509;28;20022;-75
2022/01/27 13:28:22;;;;;;;;;;;1.40;99.90;;;;;;5010200;28;20493;-78
2022/01/27 13:30:51;;;;;;;0.10;0.10;;;1.30;99.90;;;;;;5013829;28;19905;-78
2022/01/27 13:33:20;;;;;;;0.25;0.25;;;1.40;99.90;;;;;;5013117;28;20403;-80
2022/01/27 13:35:47;;;;;;;0.10;0.10;;;1.50;99.90;;;;;;5011914;28;20497;-77
2022/01/27 13:38:22;;;;;;;1.20;1.20;;;1.60;99.90;;;;;;5011048;28;20057;-78
2022/01/27 13:43:39;;;;;;;0.15;0.15;;;1.60;99.90;;;;;;5006920;28;20037;-78
2022/01/27 13:46:05;;;;;;;0.20;0.20;;;1.70;99.90;;;;;;5008940;28;20015;-78
2022/01/27 13:48:40;;;;;;;3.03;1.77;;;1.70;99.90;;;;;;5011348;28;21857;-77
2022/01/27 13:51:05;;;;;;;14.25;2.10;;;1.70;99.90;;;;;;5012489;28;20088;-77
2022/01/27 13:53:31;;;;;;;0.55;0.55;;;1.80;99.90;;;;;;5012638;28;20449;-75
2022/01/27 13:56:04;;;;;;;0.20;0.20;;;1.80;99.90;;;;;;5007702;28;20068;-77
2022/01/27 13:58:30;;;;;;;1.77;1.00;;;1.70;99.90;;;;;;5012719;28;20114;-77
2022/01/27 14:01:13;;;;;;;0.45;0.45;;;1.80;99.90;;;;;;5012864;28;20111;-78